sensor_id;sensor_type;location;lat;lon;timestamp;pressure;altitude;pressure_sealevel;temperature;humidity
9235;BME280;4652;42.716;23.218;2023-02-16T00:01:56;96082.81;;;-2.89;100.00
9235;BME280;4652;42.716;23.218;2023-02-16T00:08:40;96058.28;;;-3.13;100.00
9235;BME280;4652;42.716;23.218;2023-02-16T00:15:22;96083.88;;;-2.99;100.00
9235;BME280;4652;42.716;23.218;2023-02-16T00:22:05;96082.00;;;-2.90;100.00
9235;BME280;4652;42.716;23.218;2023-02-16T00:28:50;96072.72;;;-3.09;100.00
9235;BME280;4652;42.716;23.218;2023-02-16T00:35:34;96087.16;;;-2.97;100.00
9235;BME280;4652;42.716;23.218;2023-02-16T00:42:18;96074.97;;;-2.75;100.00
9235;BME280;4652;42.716;23.218;2023-02-16T00:49:07;96056.84;;;-3.01;100.00
9235;BME280;4652;42.716;23.218;2023-02-16T00:55:49;96068.63;;;-3.11;100.00
9235;BME280;4652;42.716;23.218;2023-02-16T01:02:31;96064.44;;;-3.28;100.00
9235;BME280;4652;42.716;23.218;2023-02-16T01:09:16;96054.13;;;-3.38;100.00
9235;BME280;4652;42.716;23.218;2023-02-16T01:16:18;96046.94;;;-3.44;100.00
9235;BME280;4652;42.716;23.218;2023-02-16T01:23:00;96061.13;;;-3.53;100.00
9235;BME280;4652;42.716;23.218;2023-02-16T01:29:44;96030.25;;;-3.67;100.00
9235;BME280;4652;42.716;23.218;2023-02-16T01:36:28;96031.91;;;-3.66;100.00
9235;BME280;4652;42.716;23.218;2023-02-16T01:43:18;96039.28;;;-3.62;100.00
9235;BME280;4652;42.716;23.218;2023-02-16T01:50:14;96020.41;;;-3.65;100.00
9235;BME280;4652;42.716;23.218;2023-02-16T01:56:59;96022.84;;;-3.64;100.00
9235;BME280;4652;42.716;23.218;2023-02-16T09:05:14;96029.81;;;6.94;66.78
9235;BME280;4652;42.716;23.218;2023-02-16T09:11:55;96013.69;;;7.18;66.37
9235;BME280;4652;42.716;23.218;2023-02-16T09:18:38;96016.38;;;7.62;65.08
9235;BME280;4652;42.716;23.218;2023-02-16T09:25:22;96015.38;;;7.24;65.53
9235;BME280;4652;42.716;23.218;2023-02-16T09:32:05;96013.78;;;7.51;65.66
9235;BME280;4652;42.716;23.218;2023-02-16T09:38:49;96000.91;;;7.36;65.22
9235;BME280;4652;42.716;23.218;2023-02-16T09:45:38;95996.56;;;7.63;65.29
9235;BME280;4652;42.716;23.218;2023-02-16T09:52:27;95990.38;;;7.18;66.30
9235;BME280;4652;42.716;23.218;2023-02-16T09:59:16;95980.00;;;7.50;65.83
9235;BME280;4652;42.716;23.218;2023-02-16T10:06:17;95976.13;;;7.74;63.74
9235;BME280;4652;42.716;23.218;2023-02-16T10:13:12;95959.22;;;7.74;64.01
9235;BME280;4652;42.716;23.218;2023-02-16T10:20:00;95949.31;;;7.91;62.91
9235;BME280;4652;42.716;23.218;2023-02-16T10:26:50;95953.53;;;8.03;63.46
9235;BME280;4652;42.716;23.218;2023-02-16T10:33:39;95931.44;;;8.73;61.33
9235;BME280;4652;42.716;23.218;2023-02-16T10:40:33;95933.94;;;8.58;61.37
9235;BME280;4652;42.716;23.218;2023-02-16T10:47:27;95925.56;;;8.54;61.84
9235;BME280;4652;42.716;23.218;2023-02-16T10:54:17;95905.03;;;8.65;60.86
9235;BME280;4652;42.716;23.218;2023-02-16T11:01:04;95893.75;;;8.90;60.41
9235;BME280;4652;42.716;23.218;2023-02-16T11:07:54;95902.72;;;9.22;59.13
9235;BME280;4652;42.716;23.218;2023-02-16T11:14:37;95887.13;;;9.24;59.08
9235;BME280;4652;42.716;23.218;2023-02-16T11:21:19;95877.09;;;9.41;58.42
9235;BME280;4652;42.716;23.218;2023-02-16T11:28:02;95841.25;;;9.04;59.02
9235;BME280;4652;42.716;23.218;2023-02-16T11:34:46;95866.97;;;9.53;58.33
9235;BME280;4652;42.716;23.218;2023-02-16T11:41:30;95864.91;;;9.65;57.48
9235;BME280;4652;42.716;23.218;2023-02-16T11:48:24;95857.91;;;9.64;57.49
9235;BME280;4652;42.716;23.218;2023-02-16T11:55:19;95839.78;;;9.86;56.81
9235;BME280;4652;42.716;23.218;2023-02-16T12:02:34;95832.91;;;10.05;56.49
9235;BME280;4652;42.716;23.218;2023-02-16T12:09:27;95812.66;;;9.93;56.56
9235;BME280;4652;42.716;23.218;2023-02-16T12:16:23;95805.47;;;10.09;56.13
9235;BME280;4652;42.716;23.218;2023-02-16T12:23:18;95794.84;;;10.29;55.27
9235;BME280;4652;42.716;23.218;2023-02-16T12:30:22;95780.66;;;10.63;54.42
9235;BME280;4652;42.716;23.218;2023-02-16T12:37:13;95783.13;;;10.75;54.30
9235;BME280;4652;42.716;23.218;2023-02-16T12:44:02;95768.63;;;11.06;53.64
9235;BME280;4652;42.716;23.218;2023-02-16T12:50:49;95746.81;;;11.18;53.06
9235;BME280;4652;42.716;23.218;2023-02-16T12:57:32;95736.81;;;10.93;53.21
9235;BME280;4652;42.716;23.218;2023-02-16T13:04:20;95758.91;;;11.26;52.69
9235;BME280;4652;42.716;23.218;2023-02-16T13:11:13;95754.59;;;11.30;52.33
9235;BME280;4652;42.716;23.218;2023-02-16T13:18:00;95751.91;;;11.45;51.92
9235;BME280;4652;42.716;23.218;2023-02-16T13:24:53;95737.34;;;11.51;51.66
9235;BME280;4652;42.716;23.218;2023-02-16T13:31:45;95720.84;;;11.67;51.24
9235;BME280;4652;42.716;23.218;2023-02-16T13:38:55;95712.50;;;11.49;51.03
9235;BME280;4652;42.716;23.218;2023-02-16T13:45:45;95720.03;;;11.72;50.81
9235;BME280;4652;42.716;23.218;2023-02-16T13:52:32;95722.44;;;11.68;50.18
9235;BME280;4652;42.716;23.218;2023-02-16T14:15:15;95661.28;;;11.44;50.25
9235;BME280;4652;42.716;23.218;2023-02-16T14:22:08;95705.44;;;11.83;50.10
9235;BME280;4652;42.716;23.218;2023-02-16T14:29:09;95696.84;;;11.76;50.66
9235;BME280;4652;42.716;23.218;2023-02-16T14:36:13;95706.28;;;11.78;50.37
9235;BME280;4652;42.716;23.218;2023-02-16T14:43:01;95706.28;;;11.78;50.37
9235;BME280;4652;42.716;23.218;2023-02-16T14:57:09;95707.03;;;11.94;49.79
9235;BME280;4652;42.716;23.218;2023-02-16T15:03:55;95706.00;;;11.75;50.69
9235;BME280;4652;42.716;23.218;2023-02-16T15:10:39;95706.28;;;11.58;51.17
9235;BME280;4652;42.716;23.218;2023-02-16T15:17:28;95702.78;;;11.73;51.40
9235;BME280;4652;42.716;23.218;2023-02-16T15:24:21;95695.50;;;11.58;51.66
9235;BME280;4652;42.716;23.218;2023-02-16T15:31:06;95641.69;;;10.93;52.20
9235;BME280;4652;42.716;23.218;2023-02-16T15:38:02;95683.44;;;10.80;53.07
9235;BME280;4652;42.716;23.218;2023-02-16T15:44:44;95709.44;;;10.19;54.20
9235;BME280;4652;42.716;23.218;2023-02-16T15:51:30;95715.81;;;9.46;54.84
9235;BME280;4652;42.716;23.218;2023-02-16T15:58:14;95712.56;;;8.17;58.52
9235;BME280;4652;42.716;23.218;2023-02-16T16:04:57;95710.50;;;7.37;61.85
9235;BME280;4652;42.716;23.218;2023-02-16T16:11:42;95717.78;;;6.70;65.67
9235;BME280;4652;42.716;23.218;2023-02-16T16:18:39;95721.50;;;6.24;69.79
9235;BME280;4652;42.716;23.218;2023-02-16T16:25:37;95720.25;;;5.87;73.49
9235;BME280;4652;42.716;23.218;2023-02-16T16:32:22;95704.63;;;5.56;78.13
9235;BME280;4652;42.716;23.218;2023-02-16T16:39:25;95738.66;;;5.60;79.67
9235;BME280;4652;42.716;23.218;2023-02-16T16:46:12;95739.94;;;5.58;79.15
9235;BME280;4652;42.716;23.218;2023-02-16T16:52:56;95746.94;;;5.36;81.38
9235;BME280;4652;42.716;23.218;2023-02-16T16:59:39;95743.47;;;5.23;86.73
9235;BME280;4652;42.716;23.218;2023-02-16T17:06:22;95744.03;;;5.25;85.14
9235;BME280;4652;42.716;23.218;2023-02-16T17:13:06;95757.28;;;5.20;85.06
9235;BME280;4652;42.716;23.218;2023-02-16T17:19:48;95748.56;;;5.13;82.71
9235;BME280;4652;42.716;23.218;2023-02-16T17:26:30;95749.84;;;5.22;78.80
9235;BME280;4652;42.716;23.218;2023-02-16T17:33:15;95750.91;;;5.21;76.92
9235;BME280;4652;42.716;23.218;2023-02-16T17:39:57;95746.94;;;5.12;78.10
9235;BME280;4652;42.716;23.218;2023-02-16T17:46:39;95705.72;;;4.73;79.61
9235;BME280;4652;42.716;23.218;2023-02-16T17:53:24;95741.13;;;4.92;78.71
9235;BME280;4652;42.716;23.218;2023-02-16T18:00:08;95737.53;;;4.98;75.63
9235;BME280;4652;42.716;23.218;2023-02-16T18:06:54;95729.28;;;4.77;73.65
9235;BME280;4652;42.716;23.218;2023-02-16T18:13:38;95740.41;;;4.73;73.04
9235;BME280;4652;42.716;23.218;2023-02-16T18:20:20;95735.03;;;4.39;79.66
9235;BME280;4652;42.716;23.218;2023-02-16T18:27:02;95734.22;;;4.08;86.39
9235;BME280;4652;42.716;23.218;2023-02-16T18:33:46;95739.19;;;4.05;88.38
9235;BME280;4652;42.716;23.218;2023-02-16T18:40:28;95742.63;;;3.76;89.31
9235;BME280;4652;42.716;23.218;2023-02-16T18:47:10;95758.25;;;3.54;89.80
9235;BME280;4652;42.716;23.218;2023-02-16T18:53:55;95737.41;;;3.33;92.52
9235;BME280;4652;42.716;23.218;2023-02-16T19:00:37;95749.81;;;3.21;91.55
9235;BME280;4652;42.716;23.218;2023-02-16T19:07:19;95734.84;;;3.02;91.15
9235;BME280;4652;42.716;23.218;2023-02-16T19:14:03;95735.69;;;2.77;93.16
9235;BME280;4652;42.716;23.218;2023-02-16T19:20:45;95747.53;;;2.81;93.69
9235;BME280;4652;42.716;23.218;2023-02-16T19:27:27;95754.97;;;2.48;98.68
9235;BME280;4652;42.716;23.218;2023-02-16T19:34:12;95737.97;;;2.49;100.00
9235;BME280;4652;42.716;23.218;2023-02-16T19:40:55;95731.94;;;2.35;100.00
9235;BME280;4652;42.716;23.218;2023-02-16T19:47:37;95739.75;;;2.30;100.00
9235;BME280;4652;42.716;23.218;2023-02-16T19:54:20;95733.28;;;2.20;100.00
9235;BME280;4652;42.716;23.218;2023-02-16T20:18:32;95744.53;;;1.84;100.00
9235;BME280;4652;42.716;23.218;2023-02-16T20:25:15;95737.53;;;1.52;100.00
9235;BME280;4652;42.716;23.218;2023-02-16T20:31:57;95747.22;;;1.20;100.00
9235;BME280;4652;42.716;23.218;2023-02-16T20:38:40;95749.94;;;0.94;100.00
9235;BME280;4652;42.716;23.218;2023-02-16T20:45:23;95733.06;;;0.42;100.00
9235;BME280;4652;42.716;23.218;2023-02-16T20:52:05;95741.00;;;0.55;100.00
9235;BME280;4652;42.716;23.218;2023-02-16T20:58:51;95743.66;;;0.36;100.00
9235;BME280;4652;42.716;23.218;2023-02-16T21:05:34;95752.81;;;0.40;100.00
9235;BME280;4652;42.716;23.218;2023-02-16T21:12:16;95699.63;;;-0.05;100.00
9235;BME280;4652;42.716;23.218;2023-02-16T21:18:59;95742.41;;;0.25;100.00
9235;BME280;4652;42.716;23.218;2023-02-16T21:25:41;95750.97;;;0.34;100.00
9235;BME280;4652;42.716;23.218;2023-02-16T21:32:23;95760.56;;;0.54;100.00
9235;BME280;4652;42.716;23.218;2023-02-16T21:39:07;95754.69;;;0.52;100.00
9235;BME280;4652;42.716;23.218;2023-02-16T21:45:57;95739.75;;;0.12;100.00
9235;BME280;4652;42.716;23.218;2023-02-16T21:52:39;95759.94;;;0.26;100.00
9235;BME280;4652;42.716;23.218;2023-02-16T21:59:22;95750.56;;;0.24;100.00
9235;BME280;4652;42.716;23.218;2023-02-16T22:06:05;95754.66;;;0.26;100.00
9235;BME280;4652;42.716;23.218;2023-02-16T22:12:48;95746.50;;;0.21;100.00
9235;BME280;4652;42.716;23.218;2023-02-16T22:19:32;95756.06;;;0.22;100.00
9235;BME280;4652;42.716;23.218;2023-02-16T22:26:20;95761.56;;;0.08;100.00
9235;BME280;4652;42.716;23.218;2023-02-16T22:33:03;95756.59;;;-0.15;100.00
9235;BME280;4652;42.716;23.218;2023-02-16T22:39:46;95733.72;;;-0.36;100.00
9235;BME280;4652;42.716;23.218;2023-02-16T22:46:28;95736.09;;;-0.67;100.00
9235;BME280;4652;42.716;23.218;2023-02-16T22:53:10;95766.59;;;-0.65;100.00
9235;BME280;4652;42.716;23.218;2023-02-16T22:59:54;95765.34;;;-0.75;100.00
9235;BME280;4652;42.716;23.218;2023-02-16T23:06:36;95755.88;;;-0.91;100.00
9235;BME280;4652;42.716;23.218;2023-02-16T23:13:18;95727.28;;;-1.15;100.00
9235;BME280;4652;42.716;23.218;2023-02-16T23:20:02;95770.13;;;-0.92;100.00
9235;BME280;4652;42.716;23.218;2023-02-16T23:26:45;95749.59;;;-0.90;100.00
9235;BME280;4652;42.716;23.218;2023-02-16T23:33:27;95753.63;;;-0.94;100.00
9235;BME280;4652;42.716;23.218;2023-02-16T23:40:11;95753.25;;;-1.25;100.00
9235;BME280;4652;42.716;23.218;2023-02-16T23:46:53;95742.44;;;-0.96;100.00
9235;BME280;4652;42.716;23.218;2023-02-16T23:53:35;95736.59;;;-0.91;100.00
